Time;durP1;ratioP1;P1;durP2;ratioP2;P2;SDS_P1;SDS_P2;PMS_P1;PMS_P2;Temp;Humidity;BMP_temperature;BMP_pressure;BME280_temperature;BME280_humidity;BME280_pressure;Samples;Min_cycle;Max_cycle;Signal;HPM_P1;HPM_P2
2022/09/02 02:03:47;;;;;;;;;8.67;7.67;;;;;;;;6352900;22;45486;-96
2022/09/02 02:11:58;;;;;;;;;10.67;8.67;;;;;;;;6354906;22;47172;-95
2022/09/02 05:59:10;;;;;;;;;15.67;15.67;;;;;;;;6241500;22;45779;-95
2022/09/02 06:24:35;;;;;;;;;13.67;11.33;;;;;;;;6375072;22;45369;-90
2022/09/02 06:27:00;;;;;;;;;13.33;10.67;;;;;;;;6337921;22;45295;-86
2022/09/02 06:29:26;;;;;;;;;10.33;10.33;;;;;;;;6366304;22;45327;-85
2022/09/02 06:31:52;;;;;;;;;16.00;10.00;;;;;;;;6337727;22;45916;-85
2022/09/02 06:34:20;;;;;;;;;11.00;9.67;;;;;;;;6338024;22;45418;-87
2022/09/02 06:36:46;;;;;;;;;13.67;11.67;;;;;;;;6337771;22;45348;-88
2022/09/02 06:39:13;;;;;;;;;10.00;10.00;;;;;;;;6338155;22;45264;-84
2022/09/02 06:41:39;;;;;;;;;10.00;9.67;;;;;;;;6365603;22;46578;-85
2022/09/02 06:44:05;;;;;;;;;15.67;12.67;;;;;;;;6336930;22;45707;-84
2022/09/02 06:46:31;;;;;;;;;9.00;9.00;;;;;;;;6338442;22;45583;-84
2022/09/02 06:48:57;;;;;;;;;10.67;10.33;;;;;;;;6337147;22;45403;-85
2022/09/02 06:51:24;;;;;;;;;10.00;10.00;;;;;;;;6365591;22;45453;-85
2022/09/02 06:53:49;;;;;;;;;11.33;10.00;;;;;;;;6336499;22;45586;-84
2022/09/02 06:56:14;;;;;;;;;12.67;10.00;;;;;;;;6337660;22;45586;-84
2022/09/02 06:58:39;;;;;;;;;10.00;9.33;;;;;;;;6336885;22;45249;-85
2022/09/02 07:01:06;;;;;;;;;8.33;8.33;;;;;;;;6338109;22;47533;-85
2022/09/02 07:06:15;;;;;;;;;12.00;10.00;;;;;;;;6366040;22;45409;-84
2022/09/02 07:08:41;;;;;;;;;10.33;10.33;;;;;;;;6337535;22;45307;-85
2022/09/02 07:11:13;;;;;;;;;10.67;10.67;;;;;;;;6366031;22;45427;-85
2022/09/02 07:13:38;;;;;;;;;12.00;10.33;;;;;;;;6336426;22;45382;-85
2022/09/02 07:16:04;;;;;;;;;9.00;9.00;;;;;;;;6366104;22;45714;-84
2022/09/02 07:18:29;;;;;;;;;12.00;11.00;;;;;;;;6337804;22;45319;-84
2022/09/02 07:20:54;;;;;;;;;14.67;10.33;;;;;;;;6332744;22;48085;-84
2022/09/02 07:23:19;;;;;;;;;10.33;10.33;;;;;;;;6335246;22;45554;-84
2022/09/02 07:25:45;;;;;;;;;13.33;11.00;;;;;;;;6365251;22;45539;-85
2022/09/02 07:28:10;;;;;;;;;10.00;9.67;;;;;;;;6335532;22;45295;-85
2022/09/02 07:30:38;;;;;;;;;11.00;9.67;;;;;;;;6334150;22;46366;-85
2022/09/02 07:33:04;;;;;;;;;8.33;8.33;;;;;;;;6336394;22;45336;-85
2022/09/02 07:35:29;;;;;;;;;11.00;11.00;;;;;;;;6360681;22;45332;-86
2022/09/02 07:37:55;;;;;;;;;9.67;9.67;;;;;;;;6334130;22;45280;-86
2022/09/02 07:40:20;;;;;;;;;11.00;11.00;;;;;;;;6362803;22;46343;-90
2022/09/02 07:42:46;;;;;;;;;11.67;11.67;;;;;;;;6335302;22;45283;-91
2022/09/02 07:45:11;;;;;;;;;11.33;11.33;;;;;;;;6335243;22;45297;-90
2022/09/02 07:47:36;;;;;;;;;10.00;9.67;;;;;;;;6335268;22;45561;-91
2022/09/02 07:50:02;;;;;;;;;11.00;10.00;;;;;;;;6335316;22;48128;-91
2022/09/02 07:52:28;;;;;;;;;10.00;10.00;;;;;;;;6335521;22;45848;-90
2022/09/02 07:54:53;;;;;;;;;9.00;9.00;;;;;;;;6336188;22;45327;-91
2022/09/02 07:57:18;;;;;;;;;12.00;11.33;;;;;;;;6336647;22;45429;-91
2022/09/02 07:59:45;;;;;;;;;12.67;12.67;;;;;;;;6334379;22;47823;-92
2022/09/02 08:02:10;;;;;;;;;12.00;12.00;;;;;;;;6335350;22;45439;-93
2022/09/02 08:04:35;;;;;;;;;10.67;10.67;;;;;;;;6335836;22;45339;-92
2022/09/02 08:07:00;;;;;;;;;11.33;10.67;;;;;;;;6336110;22;45311;-92
2022/09/02 08:09:26;;;;;;;;;13.00;12.00;;;;;;;;6334397;22;47299;-92
2022/09/02 08:11:52;;;;;;;;;8.67;8.33;;;;;;;;6329607;22;45775;-92
2022/09/02 08:14:19;;;;;;;;;8.00;8.00;;;;;;;;6365110;22;45339;-94
2022/09/02 08:16:45;;;;;;;;;8.33;8.33;;;;;;;;6337971;22;45501;-92
2022/09/02 08:19:11;;;;;;;;;11.00;8.00;;;;;;;;6334375;22;47293;-94
2022/09/02 08:21:36;;;;;;;;;10.00;10.00;;;;;;;;6334564;22;45328;-93
2022/09/02 08:24:01;;;;;;;;;11.00;11.00;;;;;;;;6338322;22;45374;-93
2022/09/02 08:26:27;;;;;;;;;13.33;10.33;;;;;;;;6336800;22;45938;-93
2022/09/02 08:28:53;;;;;;;;;12.67;11.67;;;;;;;;6365742;22;46348;-93
2022/09/02 08:31:18;;;;;;;;;10.67;10.33;;;;;;;;6338003;22;45391;-93
2022/09/02 08:33:43;;;;;;;;;11.00;11.00;;;;;;;;6332927;22;45449;-94
2022/09/02 08:36:10;;;;;;;;;10.33;9.33;;;;;;;;6365040;22;45484;-93
2022/09/02 08:38:36;;;;;;;;;14.33;11.00;;;;;;;;6336456;22;46981;-93
2022/09/02 08:41:01;;;;;;;;;12.33;10.33;;;;;;;;6337589;22;45417;-93
2022/09/02 08:43:38;;;;;;;;;13.00;12.33;;;;;;;;6360904;22;45345;-93
2022/09/02 08:46:05;;;;;;;;;11.33;10.67;;;;;;;;6365853;22;45335;-93
2022/09/02 08:48:37;;;;;;;;;13.33;12.00;;;;;;;;6365902;22;46298;-92
2022/09/02 08:51:06;;;;;;;;;12.67;10.67;;;;;;;;6334970;22;45821;-91
2022/09/02 08:53:35;;;;;;;;;12.33;9.00;;;;;;;;6365016;22;45340;-92
2022/09/02 08:56:02;;;;;;;;;11.33;10.33;;;;;;;;6366138;22;45347;-90
2022/09/02 08:58:28;;;;;;;;;12.00;11.00;;;;;;;;6336149;22;47143;-90
2022/09/02 09:01:16;;;;;;;;;14.67;13.00;;;;;;;;6337713;22;45470;-90
2022/09/02 09:03:56;;;;;;;;;11.67;11.67;;;;;;;;6367598;22;45320;-89
2022/09/02 09:06:31;;;;;;;;;14.00;11.00;;;;;;;;6368222;22;45364;-91
2022/09/02 09:09:04;;;;;;;;;14.33;12.33;;;;;;;;6368864;22;46082;-88
2022/09/02 09:11:38;;;;;;;;;13.67;12.33;;;;;;;;6365572;22;45701;-88
2022/09/02 09:14:06;;;;;;;;;18.33;17.00;;;;;;;;6337643;22;45351;-88
2022/09/02 09:16:38;;;;;;;;;18.33;15.33;;;;;;;;6367034;22;45234;-89
2022/09/02 09:19:10;;;;;;;;;14.00;14.00;;;;;;;;6338565;22;47389;-89
2022/09/02 09:21:35;;;;;;;;;14.67;13.67;;;;;;;;6367341;22;45319;-89
2022/09/02 09:24:05;;;;;;;;;14.00;13.33;;;;;;;;6367222;22;45457;-89
2022/09/02 09:26:33;;;;;;;;;12.67;12.00;;;;;;;;6366888;22;45640;-89
2022/09/02 09:29:02;;;;;;;;;14.00;14.00;;;;;;;;6337339;22;47376;-90
2022/09/02 09:31:29;;;;;;;;;13.67;12.67;;;;;;;;6338326;22;45464;-90
2022/09/02 09:34:01;;;;;;;;;12.67;11.33;;;;;;;;6339743;22;45375;-90
2022/09/02 09:36:38;;;;;;;;;15.67;11.67;;;;;;;;6339456;22;45345;-90
2022/09/02 09:39:16;;;;;;;;;14.00;13.00;;;;;;;;6367917;22;46037;-91
2022/09/02 09:41:42;;;;;;;;;12.33;11.00;;;;;;;;6366469;22;45283;-91
2022/09/02 09:44:07;;;;;;;;;15.00;15.00;;;;;;;;6336893;22;45516;-91
2022/09/02 09:46:33;;;;;;;;;13.67;12.67;;;;;;;;6337608;22;45483;-90
2022/09/02 09:48:58;;;;;;;;;15.00;11.67;;;;;;;;6336936;22;48710;-91
2022/09/02 09:51:23;;;;;;;;;12.67;11.67;;;;;;;;6336607;22;45850;-92
2022/09/02 09:53:49;;;;;;;;;17.00;14.00;;;;;;;;6337223;22;45455;-92
2022/09/02 09:56:14;;;;;;;;;13.00;13.00;;;;;;;;6367083;22;45285;-92
2022/09/02 09:58:39;;;;;;;;;13.33;13.33;;;;;;;;6337417;22;47252;-92
2022/09/02 10:01:12;;;;;;;;;15.00;15.00;;;;;;;;6338329;22;45660;-92
2022/09/02 10:03:42;;;;;;;;;15.33;14.00;;;;;;;;6337248;22;45296;-92
2022/09/02 10:06:37;;;;;;;;;14.33;14.00;;;;;;;;6338328;22;45313;-93
2022/09/02 10:09:02;;;;;;;;;12.67;12.67;;;;;;;;6301756;22;47379;-93
2022/09/02 10:11:27;;;;;;;;;12.00;11.67;;;;;;;;6338397;22;45795;-93
2022/09/02 10:14:10;;;;;;;;;16.33;16.33;;;;;;;;6337763;22;45625;-93
2022/09/02 10:16:55;;;;;;;;;17.67;12.00;;;;;;;;6338171;22;45340;-93
2022/09/02 10:19:25;;;;;;;;;15.00;13.67;;;;;;;;6337427;22;47409;-93
2022/09/02 10:21:56;;;;;;;;;14.00;14.00;;;;;;;;6337241;22;45802;-94
2022/09/02 10:24:37;;;;;;;;;16.33;14.00;;;;;;;;6338550;22;45422;-90
2022/09/02 10:27:07;;;;;;;;;14.67;13.67;;;;;;;;6335609;22;45457;-91
2022/09/02 10:29:51;;;;;;;;;15.00;15.00;;;;;;;;6336983;22;47138;-95
2022/09/02 10:32:26;;;;;;;;;15.33;13.00;;;;;;;;6340686;22;45589;-96
2022/09/02 10:35:03;;;;;;;;;16.00;13.67;;;;;;;;6342291;22;45233;-95
2022/09/02 10:37:43;;;;;;;;;14.33;14.33;;;;;;;;6374748;22;45332;-93
2022/09/02 10:43:04;;;;;;;;;20.00;15.00;;;;;;;;6276877;22;45354;-87
2022/09/02 10:45:38;;;;;;;;;16.33;15.33;;;;;;;;6275578;22;45406;-94
2022/09/02 10:48:24;;;;;;;;;19.33;16.33;;;;;;;;6247085;22;45447;-92
2022/09/02 10:51:08;;;;;;;;;15.00;9.00;;;;;;;;6274337;22;45519;-94
2022/09/02 10:53:43;;;;;;;;;14.67;13.33;;;;;;;;6278689;22;45239;-93
2022/09/02 10:56:23;;;;;;;;;16.00;15.00;;;;;;;;6276487;22;45424;-90
2022/09/02 10:59:08;;;;;;;;;16.33;13.67;;;;;;;;6253007;22;44800;-93
2022/09/02 11:01:45;;;;;;;;;16.33;14.00;;;;;;;;6254078;22;47809;-96
2022/09/02 11:04:23;;;;;;;;;14.67;14.67;;;;;;;;6270671;22;45541;-85
2022/09/02 11:06:49;;;;;;;;;16.67;13.33;;;;;;;;6267225;22;45286;-86
2022/09/02 11:09:28;;;;;;;;;14.33;13.33;;;;;;;;6266856;22;45442;-85
2022/09/02 11:11:56;;;;;;;;;17.00;17.00;;;;;;;;6240438;22;46507;-85
2022/09/02 11:14:25;;;;;;;;;14.00;14.00;;;;;;;;6239447;22;45369;-87
2022/09/02 11:16:56;;;;;;;;;17.00;15.67;;;;;;;;6240524;22;45421;-88
2022/09/02 11:19:35;;;;;;;;;19.00;19.00;;;;;;;;6282087;22;45396;-90
2022/09/02 11:22:06;;;;;;;;;19.67;17.00;;;;;;;;6337811;22;47559;-96
2022/09/02 11:24:54;;;;;;;;;18.33;15.00;;;;;;;;6337626;22;45480;-90
2022/09/02 11:27:29;;;;;;;;;15.00;14.67;;;;;;;;6366416;22;45536;-95
2022/09/02 11:30:03;;;;;;;;;17.33;15.67;;;;;;;;6365963;22;45370;-93
2022/09/02 11:32:33;;;;;;;;;17.00;15.00;;;;;;;;6335648;22;46202;-87
2022/09/02 11:35:02;;;;;;;;;23.67;18.33;;;;;;;;6335772;22;45262;-88
2022/09/02 11:37:33;;;;;;;;;21.00;18.00;;;;;;;;6335070;22;45355;-87
2022/09/02 11:40:11;;;;;;;;;15.00;15.00;;;;;;;;6334868;22;45552;-87
2022/09/02 11:42:45;;;;;;;;;19.00;19.00;;;;;;;;6363902;22;45401;-87
2022/09/02 11:45:29;;;;;;;;;16.00;16.00;;;;;;;;6333053;22;45375;-87
2022/09/02 11:48:13;;;;;;;;;16.00;16.00;;;;;;;;6334046;22;45487;-90
2022/09/02 11:50:38;;;;;;;;;19.33;17.33;;;;;;;;6336641;22;45439;-87
2022/09/02 11:53:09;;;;;;;;;19.67;19.67;;;;;;;;6363909;22;46377;-90
2022/09/02 11:55:40;;;;;;;;;19.00;18.67;;;;;;;;6364893;22;45722;-87
2022/09/02 11:58:05;;;;;;;;;19.00;17.00;;;;;;;;6336624;22;45562;-87
2022/09/02 12:00:38;;;;;;;;;17.00;17.00;;;;;;;;6361531;22;45332;-88
2022/09/02 12:03:03;;;;;;;;;21.33;17.33;;;;;;;;6329786;22;47364;-88
2022/09/02 12:05:31;;;;;;;;;25.50;21.50;;;;;;;;6336258;22;45542;-88
2022/09/02 12:07:56;;;;;;;;;18.33;16.33;;;;;;;;6364551;22;45374;-87
2022/09/02 12:10:48;;;;;;;;;17.67;17.67;;;;;;;;6365429;22;45378;-88
2022/09/02 12:13:32;;;;;;;;;21.00;20.67;;;;;;;;6329142;22;47592;-88
2022/09/02 12:16:19;;;;;;;;;22.33;20.67;;;;;;;;6336087;22;45379;-88
2022/09/02 12:18:52;;;;;;;;;16.00;16.00;;;;;;;;6336340;22;45342;-88
2022/09/02 12:21:19;;;;;;;;;21.00;16.67;;;;;;;;6336344;22;45383;-87
2022/09/02 12:23:53;;;;;;;;;20.33;19.33;;;;;;;;6335387;22;47402;-88
2022/09/02 12:26:19;;;;;;;;;20.67;20.00;;;;;;;;6334836;22;45434;-87
2022/09/02 12:28:45;;;;;;;;;21.67;17.33;;;;;;;;6363942;22;45465;-88
2022/09/02 12:31:17;;;;;;;;;18.00;17.33;;;;;;;;6333560;22;45612;-88
2022/09/02 12:33:44;;;;;;;;;20.00;15.67;;;;;;;;6335306;22;47543;-88
2022/09/02 12:36:29;;;;;;;;;14.00;14.00;;;;;;;;6336745;22;45489;-88
2022/09/02 12:38:54;;;;;;;;;15.67;14.67;;;;;;;;6335397;22;45434;-87
2022/09/02 12:41:22;;;;;;;;;18.00;17.00;;;;;;;;6335414;22;45802;-88
2022/09/02 12:43:53;;;;;;;;;17.00;16.67;;;;;;;;6363455;22;46145;-87
2022/09/02 12:46:24;;;;;;;;;17.67;17.67;;;;;;;;6364943;22;45417;-88
2022/09/02 12:49:08;;;;;;;;;16.33;15.33;;;;;;;;6336170;22;45408;-89
2022/09/02 12:51:51;;;;;;;;;18.00;18.00;;;;;;;;6362685;22;45336;-86
2022/09/02 12:54:17;;;;;;;;;16.00;16.00;;;;;;;;6363297;22;46405;-87
2022/09/02 12:56:49;;;;;;;;;19.67;19.67;;;;;;;;6365477;22;45228;-87
2022/09/02 12:59:25;;;;;;;;;22.00;21.67;;;;;;;;6365289;22;45454;-86
2022/09/02 13:01:57;;;;;;;;;21.67;18.00;;;;;;;;6364518;22;45371;-86
2022/09/02 13:04:27;;;;;;;;;18.67;18.33;;;;;;;;6364458;22;46488;-87
2022/09/02 13:06:52;;;;;;;;;20.33;15.67;;;;;;;;6335981;22;45710;-87
2022/09/02 13:09:33;;;;;;;;;17.50;16.25;;;;;;;;6365112;22;45445;-86
2022/09/02 13:12:17;;;;;;;;;18.67;18.00;;;;;;;;6364986;22;45326;-87
2022/09/02 13:14:42;;;;;;;;;18.00;16.67;;;;;;;;6363197;22;46493;-87
2022/09/02 13:17:11;;;;;;;;;15.25;14.50;;;;;;;;6366113;22;45828;-88
2022/09/02 13:19:55;;;;;;;;;15.00;15.00;;;;;;;;6336108;22;45874;-87
2022/09/02 13:22:35;;;;;;;;;16.00;13.33;;;;;;;;6335562;22;45422;-87
2022/09/02 13:25:03;;;;;;;;;14.33;14.33;;;;;;;;6364901;22;46198;-87
2022/09/02 13:27:54;;;;;;;;;15.00;14.00;;;;;;;;6363123;22;45764;-87
2022/09/02 13:30:38;;;;;;;;;14.00;13.33;;;;;;;;6233918;22;45450;-87
2022/09/02 13:33:10;;;;;;;;;18.33;17.00;;;;;;;;6237577;22;45206;-87
2022/09/02 13:35:37;;;;;;;;;15.33;14.67;;;;;;;;6236206;22;45615;-87
2022/09/02 13:38:03;;;;;;;;;16.67;14.00;;;;;;;;6230551;22;45383;-87
2022/09/02 13:40:32;;;;;;;;;16.33;12.00;;;;;;;;6236706;22;45447;-87
2022/09/02 13:43:00;;;;;;;;;13.00;13.00;;;;;;;;6209190;22;45523;-87
2022/09/02 13:45:26;;;;;;;;;13.00;13.00;;;;;;;;6236100;22;46162;-87
2022/09/02 13:47:53;;;;;;;;;15.33;14.33;;;;;;;;6232791;22;45586;-88
2022/09/02 13:50:20;;;;;;;;;14.00;14.00;;;;;;;;6236231;22;45344;-87
2022/09/02 13:52:47;;;;;;;;;15.33;12.67;;;;;;;;6235340;22;45427;-87
2022/09/02 13:55:13;;;;;;;;;19.67;16.33;;;;;;;;6235564;22;46534;-87
2022/09/02 13:57:42;;;;;;;;;13.33;13.00;;;;;;;;6235295;22;45329;-88
2022/09/02 14:00:10;;;;;;;;;16.00;15.33;;;;;;;;6235298;22;45335;-88
2022/09/02 14:02:35;;;;;;;;;15.00;14.00;;;;;;;;6236910;22;45431;-88
2022/09/02 14:05:05;;;;;;;;;15.00;13.33;;;;;;;;6235814;22;46069;-87
2022/09/02 14:07:50;;;;;;;;;11.00;9.00;;;;;;;;6289957;22;45557;-87
2022/09/02 14:10:18;;;;;;;;;16.33;15.67;;;;;;;;6363355;22;45406;-88
2022/09/02 14:12:44;;;;;;;;;17.00;15.67;;;;;;;;6363441;22;45416;-88
2022/09/02 14:15:12;;;;;;;;;16.67;14.33;;;;;;;;6363238;22;45958;-88
2022/09/02 14:17:37;;;;;;;;;14.00;13.00;;;;;;;;6365019;22;45638;-88
2022/09/02 14:20:08;;;;;;;;;15.00;12.67;;;;;;;;6365166;22;45429;-88
2022/09/02 14:22:34;;;;;;;;;16.00;16.00;;;;;;;;6363963;22;45213;-88
2022/09/02 14:25:06;;;;;;;;;14.00;13.00;;;;;;;;6363460;22;45725;-89
2022/09/02 14:27:31;;;;;;;;;17.67;16.00;;;;;;;;6336095;22;45378;-88
2022/09/02 14:29:57;;;;;;;;;14.67;13.33;;;;;;;;6359518;22;45286;-88
2022/09/02 14:32:23;;;;;;;;;16.00;15.00;;;;;;;;6364976;22;45268;-88
2022/09/02 14:35:06;;;;;;;;;14.00;14.00;;;;;;;;6362970;22;46292;-88
2022/09/02 14:37:32;;;;;;;;;12.00;12.00;;;;;;;;6363291;22;45357;-88
2022/09/02 14:40:10;;;;;;;;;9.00;7.67;;;;;;;;6362530;22;45467;-88
2022/09/02 14:42:49;;;;;;;;;10.00;10.00;;;;;;;;6363522;22;45629;-90
2022/09/02 14:45:24;;;;;;;;;11.67;9.67;;;;;;;;6362707;22;46643;-89
2022/09/02 14:47:49;;;;;;;;;10.33;9.00;;;;;;;;6364209;22;45372;-87
2022/09/02 14:50:18;;;;;;;;;11.00;10.00;;;;;;;;6335683;22;45449;-88
2022/09/02 14:52:45;;;;;;;;;6.67;5.00;;;;;;;;6333785;22;45323;-88
2022/09/02 14:55:30;;;;;;;;;11.67;7.67;;;;;;;;6363401;22;45953;-88
2022/09/02 14:58:02;;;;;;;;;8.00;8.00;;;;;;;;6334278;22;45323;-88
2022/09/02 15:00:27;;;;;;;;;9.33;9.33;;;;;;;;6335810;22;45582;-88
2022/09/02 15:02:54;;;;;;;;;9.67;9.67;;;;;;;;6335264;22;45247;-88
2022/09/02 15:05:23;;;;;;;;;7.67;7.67;;;;;;;;6364192;22;46317;-88
2022/09/02 15:07:48;;;;;;;;;7.00;7.00;;;;;;;;6334214;22;45732;-88
2022/09/02 15:10:13;;;;;;;;;8.00;8.00;;;;;;;;6364576;22;45415;-88
2022/09/02 15:12:45;;;;;;;;;8.33;7.33;;;;;;;;6336241;22;45470;-86
2022/09/02 15:15:10;;;;;;;;;7.00;7.00;;;;;;;;6334485;22;46325;-88
2022/09/02 15:17:35;;;;;;;;;9.00;9.00;;;;;;;;6337079;22;45564;-87
2022/09/02 15:20:01;;;;;;;;;7.00;7.00;;;;;;;;6336633;22;45300;-89
2022/09/02 15:22:26;;;;;;;;;7.33;7.33;;;;;;;;6337062;22;45466;-93
2022/09/02 15:24:51;;;;;;;;;9.00;9.00;;;;;;;;6336921;22;47853;-91
2022/09/02 15:27:17;;;;;;;;;7.33;7.33;;;;;;;;6340496;22;45508;-94
2022/09/02 15:29:42;;;;;;;;;30.33;26.33;;;;;;;;6338104;22;45995;-89
2022/09/02 15:32:08;;;;;;;;;5.00;5.00;;;;;;;;6339923;22;45314;-92
2022/09/02 15:34:33;;;;;;;;;7.00;6.00;;;;;;;;6367608;22;45598;-88
2022/09/02 15:36:59;;;;;;;;;9.67;9.67;;;;;;;;6367178;22;45390;-90
2022/09/02 15:39:24;;;;;;;;;7.33;7.33;;;;;;;;6367343;22;45342;-89
2022/09/02 15:41:50;;;;;;;;;7.00;7.00;;;;;;;;6368415;22;45435;-88
2022/09/02 15:44:16;;;;;;;;;4.00;4.00;;;;;;;;6367784;22;46131;-90
2022/09/02 15:46:42;;;;;;;;;5.67;4.00;;;;;;;;6340011;22;45407;-90
2022/09/02 15:49:08;;;;;;;;;6.67;5.00;;;;;;;;6369516;22;45340;-93
2022/09/02 15:51:34;;;;;;;;;7.33;6.33;;;;;;;;6341013;22;45224;-91
2022/09/02 15:54:00;;;;;;;;;4.00;4.00;;;;;;;;6368824;22;46100;-95
2022/09/02 15:56:26;;;;;;;;;5.00;4.00;;;;;;;;6340514;22;45948;-89
2022/09/02 15:59:00;;;;;;;;;5.67;5.67;;;;;;;;6368025;22;45375;-91
2022/09/02 16:01:26;;;;;;;;;6.67;5.00;;;;;;;;6372315;22;45220;-94
2022/09/02 16:03:51;;;;;;;;;5.33;5.00;;;;;;;;6340057;22;47518;-92
2022/09/02 16:06:17;;;;;;;;;5.00;4.67;;;;;;;;6338980;22;45249;-92
2022/09/02 16:08:42;;;;;;;;;6.33;4.00;;;;;;;;6339999;22;45473;-88
2022/09/02 16:11:07;;;;;;;;;4.67;4.67;;;;;;;;6368907;22;45356;-94
2022/09/02 16:13:33;;;;;;;;;9.33;9.33;;;;;;;;6367081;22;45382;-87
2022/09/02 16:16:09;;;;;;;;;4.33;4.33;;;;;;;;6339328;22;45429;-87
2022/09/02 16:18:35;;;;;;;;;5.00;5.00;;;;;;;;6368454;22;45352;-88
2022/09/02 16:21:00;;;;;;;;;4.33;4.33;;;;;;;;6367819;22;45312;-88
2022/09/02 16:23:25;;;;;;;;;6.67;5.00;;;;;;;;6367116;22;46402;-89
2022/09/02 16:26:09;;;;;;;;;4.33;4.33;;;;;;;;6339499;22;45276;-89
2022/09/02 16:28:36;;;;;;;;;6.00;4.00;;;;;;;;6339201;22;45386;-87
2022/09/02 16:31:01;;;;;;;;;4.33;3.67;;;;;;;;6367956;22;45414;-87
2022/09/02 16:33:26;;;;;;;;;4.33;4.00;;;;;;;;6367103;22;45458;-87
2022/09/02 16:35:51;;;;;;;;;3.67;3.00;;;;;;;;6366379;22;45628;-86
2022/09/02 16:38:17;;;;;;;;;4.00;4.00;;;;;;;;6364597;22;45304;-88
2022/09/02 16:40:49;;;;;;;;;3.67;3.67;;;;;;;;6337646;22;45664;-86
2022/09/02 16:43:14;;;;;;;;;4.00;3.00;;;;;;;;6360197;22;45444;-86
2022/09/02 16:45:39;;;;;;;;;3.33;3.33;;;;;;;;6333689;22;45769;-88
2022/09/02 16:48:05;;;;;;;;;3.33;3.33;;;;;;;;6364402;22;45597;-89
2022/09/02 16:50:30;;;;;;;;;4.00;4.00;;;;;;;;6336664;22;45365;-89
2022/09/02 16:52:55;;;;;;;;;3.00;3.00;;;;;;;;6365275;22;46376;-91
2022/09/02 16:55:20;;;;;;;;;3.67;3.67;;;;;;;;6365662;22;45359;-92
2022/09/02 16:57:45;;;;;;;;;6.33;4.00;;;;;;;;6336829;22;45489;-91
2022/09/02 17:00:11;;;;;;;;;5.33;4.00;;;;;;;;6362342;22;45582;-91
2022/09/02 17:02:36;;;;;;;;;3.67;3.67;;;;;;;;6363482;22;46676;-90
2022/09/02 17:05:02;;;;;;;;;4.00;4.00;;;;;;;;6335051;22;45411;-89
2022/09/02 17:07:27;;;;;;;;;4.00;4.00;;;;;;;;6336512;22;45409;-93
2022/09/02 17:09:52;;;;;;;;;4.00;4.00;;;;;;;;6365083;22;45295;-91
2022/09/02 17:12:17;;;;;;;;;5.00;5.00;;;;;;;;6337385;22;48062;-90
2022/09/02 17:14:43;;;;;;;;;5.00;3.33;;;;;;;;6363817;22;45710;-91
2022/09/02 17:17:13;;;;;;;;;4.67;4.67;;;;;;;;6366326;22;45339;-91
2022/09/02 17:19:38;;;;;;;;;4.50;4.50;;;;;;;;6364742;22;45285;-91
2022/09/02 17:22:03;;;;;;;;;4.00;4.00;;;;;;;;6336949;22;47110;-92
2022/09/02 17:24:30;;;;;;;;;6.00;5.33;;;;;;;;6336672;22;45878;-93
2022/09/02 17:26:55;;;;;;;;;5.67;3.67;;;;;;;;6337334;22;45452;-91
2022/09/02 17:29:21;;;;;;;;;6.33;5.00;;;;;;;;6331835;22;45347;-91
2022/09/02 17:31:47;;;;;;;;;5.00;4.00;;;;;;;;6363374;22;45457;-91
2022/09/02 17:34:13;;;;;;;;;4.00;4.00;;;;;;;;6337159;22;45893;-91
2022/09/02 17:36:40;;;;;;;;;6.00;5.00;;;;;;;;6364745;22;45595;-92
2022/09/02 17:39:05;;;;;;;;;5.33;3.33;;;;;;;;6365336;22;45439;-91
2022/09/02 17:44:14;;;;;;;;;5.00;5.00;;;;;;;;6364738;22;45524;-91
2022/09/02 17:46:41;;;;;;;;;7.33;5.00;;;;;;;;6365388;22;45310;-91
2022/09/02 17:49:06;;;;;;;;;4.67;3.67;;;;;;;;6334360;22;45684;-91
2022/09/02 17:51:32;;;;;;;;;4.67;4.67;;;;;;;;6364763;22;45268;-91
2022/09/02 17:53:57;;;;;;;;;3.00;3.00;;;;;;;;6359798;22;45366;-90
2022/09/02 17:56:28;;;;;;;;;4.67;3.00;;;;;;;;6365651;22;45354;-92
2022/09/02 17:59:04;;;;;;;;;5.67;5.67;;;;;;;;6366765;22;45379;-93
2022/09/02 18:04:18;;;;;;;;;4.00;4.00;;;;;;;;6370769;22;45457;-96
2022/09/02 18:06:45;;;;;;;;;6.00;5.00;;;;;;;;6365701;22;45617;-92
2022/09/02 18:09:10;;;;;;;;;3.67;3.67;;;;;;;;6334631;22;45281;-91
2022/09/02 18:11:35;;;;;;;;;4.33;3.33;;;;;;;;6341528;22;48015;-95
2022/09/02 18:14:13;;;;;;;;;4.00;4.00;;;;;;;;6342490;22;45354;-92
2022/09/02 18:16:43;;;;;;;;;4.33;4.33;;;;;;;;6345499;22;45482;-94
2022/09/02 18:19:10;;;;;;;;;7.67;6.00;;;;;;;;6350253;22;45359;-91
2022/09/02 18:21:54;;;;;;;;;5.00;5.00;;;;;;;;6341114;22;47221;-92
2022/09/02 18:24:19;;;;;;;;;6.33;3.67;;;;;;;;6340238;22;45392;-90
2022/09/02 18:26:51;;;;;;;;;5.00;4.67;;;;;;;;6336597;22;45557;-90
2022/09/02 18:29:30;;;;;;;;;6.00;4.67;;;;;;;;6378191;22;45586;-96
2022/09/02 18:32:04;;;;;;;;;6.00;5.00;;;;;;;;6346116;22;48120;-95
2022/09/02 18:34:48;;;;;;;;;5.00;5.00;;;;;;;;6340797;22;45375;-91
2022/09/02 18:37:25;;;;;;;;;8.67;6.33;;;;;;;;6364954;22;45307;-91
2022/09/02 18:40:10;;;;;;;;;8.67;6.33;;;;;;;;6335049;22;45829;-89
2022/09/02 18:42:42;;;;;;;;;7.00;6.33;;;;;;;;6336356;22;47607;-87
2022/09/02 18:45:11;;;;;;;;;7.00;6.00;;;;;;;;6363771;22;45469;-89
2022/09/02 18:47:44;;;;;;;;;7.00;4.33;;;;;;;;6364276;22;45648;-87
2022/09/02 18:50:12;;;;;;;;;4.33;3.67;;;;;;;;6366659;22;45376;-87
2022/09/02 18:52:39;;;;;;;;;6.00;6.00;;;;;;;;6364734;22;46536;-93
2022/09/02 18:55:10;;;;;;;;;6.00;5.67;;;;;;;;6345608;22;45315;-96
2022/09/02 18:57:40;;;;;;;;;4.00;4.00;;;;;;;;6310016;22;45361;-94
2022/09/02 19:00:07;;;;;;;;;6.00;6.00;;;;;;;;6306353;22;45344;-96
2022/09/02 19:02:44;;;;;;;;;6.00;6.00;;;;;;;;6304442;22;47649;-96
2022/09/02 19:05:21;;;;;;;;;7.00;6.33;;;;;;;;6303325;22;45340;-93
2022/09/02 19:10:31;;;;;;;;;9.00;7.00;;;;;;;;6310351;22;44702;-94
2022/09/02 19:12:58;;;;;;;;;5.00;5.00;;;;;;;;6300921;22;47714;-94
2022/09/02 19:15:24;;;;;;;;;7.00;5.00;;;;;;;;6305917;22;45242;-93
2022/09/02 19:17:49;;;;;;;;;7.00;7.00;;;;;;;;6309105;22;45393;-95
2022/09/02 19:20:16;;;;;;;;;6.00;5.00;;;;;;;;6302568;22;45351;-96
2022/09/02 19:22:44;;;;;;;;;8.00;7.00;;;;;;;;6305679;22;46750;-94
2022/09/02 19:25:11;;;;;;;;;5.33;5.33;;;;;;;;6301704;22;45306;-95
2022/09/02 19:27:38;;;;;;;;;7.00;6.00;;;;;;;;6309283;22;45356;-96
2022/09/02 19:30:05;;;;;;;;;8.00;6.67;;;;;;;;6333863;22;45459;-94
2022/09/02 19:32:32;;;;;;;;;7.00;7.00;;;;;;;;6305414;22;48202;-93
2022/09/02 19:35:04;;;;;;;;;8.00;6.67;;;;;;;;6305095;22;45409;-91
2022/09/02 19:37:29;;;;;;;;;6.67;6.67;;;;;;;;6306951;22;45256;-94
2022/09/02 19:39:54;;;;;;;;;8.00;7.67;;;;;;;;6304924;22;45395;-90
2022/09/02 19:42:20;;;;;;;;;7.33;6.33;;;;;;;;6333750;22;45375;-91
2022/09/02 19:44:46;;;;;;;;;11.00;9.00;;;;;;;;6303268;22;45719;-91
2022/09/02 19:47:11;;;;;;;;;11.67;10.00;;;;;;;;6303886;22;45275;-91
2022/09/02 19:49:37;;;;;;;;;10.33;9.00;;;;;;;;6304376;22;45518;-90
2022/09/02 19:52:02;;;;;;;;;10.00;8.67;;;;;;;;6303636;22;48157;-89
2022/09/02 19:54:28;;;;;;;;;7.00;7.00;;;;;;;;6332209;22;45323;-90
